sensor_id;sensor_type;location;lat;lon;timestamp;P1;durP1;ratioP1;P2;durP2;ratioP2
37047;SDS011;23227;48.780;9.210;2024-02-21T00:00:08;1.47;;;0.77;;
37047;SDS011;23227;48.780;9.210;2024-02-21T00:03:12;1.47;;;0.63;;
37047;SDS011;23227;48.780;9.210;2024-02-21T00:06:15;1.38;;;0.65;;
37047;SDS011;23227;48.780;9.210;2024-02-21T00:09:17;1.52;;;0.82;;
37047;SDS011;23227;48.780;9.210;2024-02-21T00:12:22;1.80;;;0.80;;
37047;SDS011;23227;48.780;9.210;2024-02-21T00:15:25;0.97;;;0.60;;
37047;SDS011;23227;48.780;9.210;2024-02-21T00:18:28;1.15;;;0.90;;
37047;SDS011;23227;48.780;9.210;2024-02-21T00:24:33;1.23;;;0.70;;
37047;SDS011;23227;48.780;9.210;2024-02-21T00:27:37;1.88;;;0.65;;
37047;SDS011;23227;48.780;9.210;2024-02-21T00:30:40;1.60;;;0.63;;
37047;SDS011;23227;48.780;9.210;2024-02-21T00:33:43;1.13;;;0.82;;
37047;SDS011;23227;48.780;9.210;2024-02-21T00:36:45;1.27;;;0.60;;
37047;SDS011;23227;48.780;9.210;2024-02-21T00:39:48;1.77;;;0.70;;
37047;SDS011;23227;48.780;9.210;2024-02-21T00:42:52;2.03;;;1.00;;
37047;SDS011;23227;48.780;9.210;2024-02-21T00:45:54;1.37;;;0.70;;
37047;SDS011;23227;48.780;9.210;2024-02-21T00:48:57;1.10;;;0.57;;
37047;SDS011;23227;48.780;9.210;2024-02-21T00:52:00;1.88;;;0.80;;
37047;SDS011;23227;48.780;9.210;2024-02-21T00:55:02;0.93;;;0.70;;
37047;SDS011;23227;48.780;9.210;2024-02-21T00:58:07;0.63;;;0.60;;
37047;SDS011;23227;48.780;9.210;2024-02-21T01:01:10;1.87;;;1.10;;
37047;SDS011;23227;48.780;9.210;2024-02-21T01:04:12;2.00;;;1.10;;
37047;SDS011;23227;48.780;9.210;2024-02-21T01:07:15;0.73;;;0.50;;
37047;SDS011;23227;48.780;9.210;2024-02-21T01:10:20;0.80;;;0.67;;
37047;SDS011;23227;48.780;9.210;2024-02-21T01:13:25;1.43;;;0.70;;
37047;SDS011;23227;48.780;9.210;2024-02-21T01:16:28;1.23;;;0.70;;
37047;SDS011;23227;48.780;9.210;2024-02-21T01:19:30;1.02;;;0.60;;
37047;SDS011;23227;48.780;9.210;2024-02-21T01:22:33;0.95;;;0.65;;
37047;SDS011;23227;48.780;9.210;2024-02-21T01:25:36;0.85;;;0.43;;
37047;SDS011;23227;48.780;9.210;2024-02-21T01:28:40;1.23;;;0.55;;
37047;SDS011;23227;48.780;9.210;2024-02-21T01:31:42;1.40;;;0.53;;
37047;SDS011;23227;48.780;9.210;2024-02-21T01:34:45;1.58;;;0.75;;
37047;SDS011;23227;48.780;9.210;2024-02-21T01:37:48;0.95;;;0.57;;
37047;SDS011;23227;48.780;9.210;2024-02-21T01:40:52;1.60;;;0.80;;
37047;SDS011;23227;48.780;9.210;2024-02-21T01:43:56;1.60;;;1.10;;
37047;SDS011;23227;48.780;9.210;2024-02-21T01:46:59;1.67;;;0.73;;
37047;SDS011;23227;48.780;9.210;2024-02-21T01:50:02;0.50;;;0.40;;
37047;SDS011;23227;48.780;9.210;2024-02-21T01:53:06;1.50;;;0.80;;
37047;SDS011;23227;48.780;9.210;2024-02-21T01:56:09;0.80;;;0.60;;
37047;SDS011;23227;48.780;9.210;2024-02-21T02:02:16;1.47;;;0.60;;
37047;SDS011;23227;48.780;9.210;2024-02-21T02:05:20;1.50;;;0.70;;
37047;SDS011;23227;48.780;9.210;2024-02-21T02:11:25;0.70;;;0.50;;
37047;SDS011;23227;48.780;9.210;2024-02-21T02:14:29;2.03;;;0.47;;
37047;SDS011;23227;48.780;9.210;2024-02-21T02:17:32;0.80;;;0.70;;
37047;SDS011;23227;48.780;9.210;2024-02-21T02:20:34;0.90;;;0.60;;
37047;SDS011;23227;48.780;9.210;2024-02-21T02:23:39;0.75;;;0.52;;
37047;SDS011;23227;48.780;9.210;2024-02-21T02:26:41;1.90;;;1.00;;
37047;SDS011;23227;48.780;9.210;2024-02-21T02:29:44;1.50;;;0.55;;
37047;SDS011;23227;48.780;9.210;2024-02-21T02:32:47;1.88;;;0.68;;
37047;SDS011;23227;48.780;9.210;2024-02-21T02:35:49;0.73;;;0.73;;
37047;SDS011;23227;48.780;9.210;2024-02-21T02:38:53;1.48;;;0.80;;
37047;SDS011;23227;48.780;9.210;2024-02-21T02:41:56;1.13;;;0.50;;
37047;SDS011;23227;48.780;9.210;2024-02-21T02:44:58;1.75;;;0.60;;
37047;SDS011;23227;48.780;9.210;2024-02-21T02:48:01;0.73;;;0.55;;
37047;SDS011;23227;48.780;9.210;2024-02-21T02:51:04;1.50;;;0.70;;
37047;SDS011;23227;48.780;9.210;2024-02-21T02:54:08;0.73;;;0.45;;
37047;SDS011;23227;48.780;9.210;2024-02-21T02:57:11;1.37;;;0.60;;
37047;SDS011;23227;48.780;9.210;2024-02-21T03:00:14;0.60;;;0.30;;
37047;SDS011;23227;48.780;9.210;2024-02-21T03:03:17;2.60;;;0.90;;
37047;SDS011;23227;48.780;9.210;2024-02-21T03:06:20;2.20;;;0.63;;
37047;SDS011;23227;48.780;9.210;2024-02-21T03:09:24;1.13;;;0.50;;
37047;SDS011;23227;48.780;9.210;2024-02-21T03:12:26;0.80;;;0.50;;
37047;SDS011;23227;48.780;9.210;2024-02-21T03:15:30;0.90;;;0.60;;
37047;SDS011;23227;48.780;9.210;2024-02-21T03:18:32;1.48;;;0.50;;
37047;SDS011;23227;48.780;9.210;2024-02-21T03:21:35;0.70;;;0.63;;
37047;SDS011;23227;48.780;9.210;2024-02-21T03:24:39;0.93;;;0.57;;
37047;SDS011;23227;48.780;9.210;2024-02-21T03:27:41;0.67;;;0.43;;
37047;SDS011;23227;48.780;9.210;2024-02-21T03:30:44;0.57;;;0.55;;
37047;SDS011;23227;48.780;9.210;2024-02-21T03:33:47;1.15;;;0.60;;
37047;SDS011;23227;48.780;9.210;2024-02-21T03:36:49;1.88;;;0.60;;
37047;SDS011;23227;48.780;9.210;2024-02-21T03:39:53;0.55;;;0.40;;
37047;SDS011;23227;48.780;9.210;2024-02-21T03:42:56;0.70;;;0.50;;
37047;SDS011;23227;48.780;9.210;2024-02-21T03:45:58;0.75;;;0.47;;
37047;SDS011;23227;48.780;9.210;2024-02-21T03:49:02;1.03;;;0.50;;
37047;SDS011;23227;48.780;9.210;2024-02-21T03:52:05;0.40;;;0.40;;
37047;SDS011;23227;48.780;9.210;2024-02-21T03:55:09;1.38;;;0.55;;
37047;SDS011;23227;48.780;9.210;2024-02-21T03:58:11;0.80;;;0.50;;
37047;SDS011;23227;48.780;9.210;2024-02-21T04:01:15;1.13;;;0.57;;
37047;SDS011;23227;48.780;9.210;2024-02-21T04:04:18;0.40;;;0.40;;
37047;SDS011;23227;48.780;9.210;2024-02-21T04:07:20;0.52;;;0.50;;
37047;SDS011;23227;48.780;9.210;2024-02-21T04:10:24;0.82;;;0.50;;
37047;SDS011;23227;48.780;9.210;2024-02-21T04:13:27;2.30;;;0.60;;
37047;SDS011;23227;48.780;9.210;2024-02-21T04:16:29;0.70;;;0.60;;
37047;SDS011;23227;48.780;9.210;2024-02-21T04:19:32;0.65;;;0.60;;
37047;SDS011;23227;48.780;9.210;2024-02-21T04:22:35;0.90;;;0.45;;
37047;SDS011;23227;48.780;9.210;2024-02-21T04:25:39;0.50;;;0.50;;
37047;SDS011;23227;48.780;9.210;2024-02-21T04:28:42;0.60;;;0.50;;
37047;SDS011;23227;48.780;9.210;2024-02-21T04:31:45;0.93;;;0.50;;
37047;SDS011;23227;48.780;9.210;2024-02-21T04:34:48;1.20;;;0.70;;
37047;SDS011;23227;48.780;9.210;2024-02-21T04:37:51;0.95;;;0.60;;
37047;SDS011;23227;48.780;9.210;2024-02-21T04:40:55;1.65;;;0.50;;
37047;SDS011;23227;48.780;9.210;2024-02-21T04:43:59;1.03;;;0.50;;
37047;SDS011;23227;48.780;9.210;2024-02-21T04:47:03;0.87;;;0.60;;
37047;SDS011;23227;48.780;9.210;2024-02-21T04:50:06;1.27;;;0.70;;
37047;SDS011;23227;48.780;9.210;2024-02-21T04:53:09;0.80;;;0.47;;
37047;SDS011;23227;48.780;9.210;2024-02-21T04:56:13;2.17;;;0.63;;
37047;SDS011;23227;48.780;9.210;2024-02-21T04:59:16;0.80;;;0.43;;
37047;SDS011;23227;48.780;9.210;2024-02-21T05:02:18;0.60;;;0.55;;
37047;SDS011;23227;48.780;9.210;2024-02-21T05:05:23;4.37;;;1.40;;
37047;SDS011;23227;48.780;9.210;2024-02-21T05:08:26;8.02;;;1.67;;
37047;SDS011;23227;48.780;9.210;2024-02-21T05:11:30;6.70;;;1.75;;
37047;SDS011;23227;48.780;9.210;2024-02-21T05:14:33;3.40;;;1.37;;
37047;SDS011;23227;48.780;9.210;2024-02-21T05:17:36;5.80;;;1.67;;
37047;SDS011;23227;48.780;9.210;2024-02-21T05:20:38;6.03;;;1.90;;
37047;SDS011;23227;48.780;9.210;2024-02-21T05:23:41;3.53;;;1.50;;
37047;SDS011;23227;48.780;9.210;2024-02-21T05:26:45;9.27;;;2.33;;
37047;SDS011;23227;48.780;9.210;2024-02-21T05:29:48;6.40;;;1.80;;
37047;SDS011;23227;48.780;9.210;2024-02-21T05:32:50;5.10;;;1.60;;
37047;SDS011;23227;48.780;9.210;2024-02-21T05:35:53;5.82;;;1.88;;
37047;SDS011;23227;48.780;9.210;2024-02-21T05:38:55;13.85;;;3.72;;
37047;SDS011;23227;48.780;9.210;2024-02-21T05:42:00;25.27;;;4.53;;
37047;SDS011;23227;48.780;9.210;2024-02-21T05:45:02;66.47;;;10.40;;
37047;SDS011;23227;48.780;9.210;2024-02-21T05:48:06;32.10;;;6.70;;
37047;SDS011;23227;48.780;9.210;2024-02-21T05:54:11;34.97;;;6.70;;
37047;SDS011;23227;48.780;9.210;2024-02-21T05:57:15;34.00;;;8.27;;
37047;SDS011;23227;48.780;9.210;2024-02-21T06:00:19;28.10;;;6.60;;
37047;SDS011;23227;48.780;9.210;2024-02-21T06:03:21;24.50;;;6.53;;
37047;SDS011;23227;48.780;9.210;2024-02-21T06:06:24;29.48;;;6.78;;
37047;SDS011;23227;48.780;9.210;2024-02-21T06:09:27;34.28;;;6.50;;
37047;SDS011;23227;48.780;9.210;2024-02-21T06:12:31;24.73;;;5.95;;
37047;SDS011;23227;48.780;9.210;2024-02-21T06:15:33;26.63;;;5.77;;
37047;SDS011;23227;48.780;9.210;2024-02-21T06:18:36;22.80;;;5.32;;
37047;SDS011;23227;48.780;9.210;2024-02-21T06:24:42;25.70;;;5.67;;
37047;SDS011;23227;48.780;9.210;2024-02-21T06:27:46;17.73;;;6.03;;
37047;SDS011;23227;48.780;9.210;2024-02-21T06:30:49;21.53;;;5.80;;
37047;SDS011;23227;48.780;9.210;2024-02-21T06:33:52;19.85;;;5.20;;
37047;SDS011;23227;48.780;9.210;2024-02-21T06:36:54;27.60;;;6.50;;
37047;SDS011;23227;48.780;9.210;2024-02-21T06:39:57;18.60;;;4.80;;
37047;SDS011;23227;48.780;9.210;2024-02-21T06:43:01;20.63;;;5.00;;
37047;SDS011;23227;48.780;9.210;2024-02-21T06:46:03;19.07;;;4.20;;
37047;SDS011;23227;48.780;9.210;2024-02-21T06:49:06;20.20;;;5.55;;
37047;SDS011;23227;48.780;9.210;2024-02-21T06:52:09;15.88;;;5.10;;
37047;SDS011;23227;48.780;9.210;2024-02-21T06:55:11;17.23;;;4.55;;
37047;SDS011;23227;48.780;9.210;2024-02-21T06:58:15;17.77;;;4.25;;
37047;SDS011;23227;48.780;9.210;2024-02-21T07:01:18;13.97;;;4.07;;
37047;SDS011;23227;48.780;9.210;2024-02-21T07:04:21;16.95;;;4.68;;
37047;SDS011;23227;48.780;9.210;2024-02-21T07:07:23;21.95;;;4.85;;
37047;SDS011;23227;48.780;9.210;2024-02-21T07:10:26;20.65;;;4.45;;
37047;SDS011;23227;48.780;9.210;2024-02-21T07:13:31;11.60;;;3.30;;
37047;SDS011;23227;48.780;9.210;2024-02-21T07:16:34;15.97;;;3.73;;
37047;SDS011;23227;48.780;9.210;2024-02-21T07:19:37;13.02;;;4.28;;
37047;SDS011;23227;48.780;9.210;2024-02-21T07:22:40;12.18;;;3.70;;
37047;SDS011;23227;48.780;9.210;2024-02-21T07:25:42;15.05;;;4.00;;
37047;SDS011;23227;48.780;9.210;2024-02-21T07:28:46;8.82;;;3.33;;
37047;SDS011;23227;48.780;9.210;2024-02-21T07:31:49;18.07;;;4.43;;
37047;SDS011;23227;48.780;9.210;2024-02-21T07:34:53;13.57;;;3.33;;
37047;SDS011;23227;48.780;9.210;2024-02-21T07:37:56;13.77;;;4.85;;
37047;SDS011;23227;48.780;9.210;2024-02-21T07:40:58;10.15;;;3.60;;
37047;SDS011;23227;48.780;9.210;2024-02-21T07:44:02;16.48;;;3.65;;
37047;SDS011;23227;48.780;9.210;2024-02-21T07:47:06;10.77;;;3.30;;
37047;SDS011;23227;48.780;9.210;2024-02-21T07:50:09;11.70;;;3.23;;
37047;SDS011;23227;48.780;9.210;2024-02-21T07:56:15;12.00;;;3.13;;
37047;SDS011;23227;48.780;9.210;2024-02-21T07:59:19;11.00;;;3.97;;
37047;SDS011;23227;48.780;9.210;2024-02-21T08:02:21;7.87;;;2.80;;
37047;SDS011;23227;48.780;9.210;2024-02-21T08:05:24;10.90;;;3.33;;
37047;SDS011;23227;48.780;9.210;2024-02-21T08:08:27;8.82;;;3.22;;
37047;SDS011;23227;48.780;9.210;2024-02-21T08:11:29;11.27;;;3.50;;
37047;SDS011;23227;48.780;9.210;2024-02-21T08:14:33;8.68;;;3.05;;
37047;SDS011;23227;48.780;9.210;2024-02-21T08:17:36;8.07;;;2.90;;
37047;SDS011;23227;48.780;9.210;2024-02-21T08:20:39;9.48;;;3.13;;
37047;SDS011;23227;48.780;9.210;2024-02-21T08:23:41;6.95;;;3.22;;
37047;SDS011;23227;48.780;9.210;2024-02-21T08:26:44;9.75;;;3.45;;
37047;SDS011;23227;48.780;9.210;2024-02-21T08:29:48;8.57;;;2.95;;
37047;SDS011;23227;48.780;9.210;2024-02-21T08:32:51;6.93;;;2.57;;
37047;SDS011;23227;48.780;9.210;2024-02-21T08:35:55;6.47;;;2.30;;
37047;SDS011;23227;48.780;9.210;2024-02-21T08:38:58;9.70;;;3.38;;
37047;SDS011;23227;48.780;9.210;2024-02-21T08:42:00;13.10;;;3.28;;
37047;SDS011;23227;48.780;9.210;2024-02-21T08:45:05;7.32;;;2.60;;
37047;SDS011;23227;48.780;9.210;2024-02-21T08:48:08;9.07;;;2.70;;
37047;SDS011;23227;48.780;9.210;2024-02-21T08:51:11;10.55;;;3.20;;
37047;SDS011;23227;48.780;9.210;2024-02-21T08:54:14;7.55;;;2.80;;
37047;SDS011;23227;48.780;9.210;2024-02-21T08:57:17;10.25;;;2.78;;
37047;SDS011;23227;48.780;9.210;2024-02-21T09:00:21;8.80;;;3.23;;
37047;SDS011;23227;48.780;9.210;2024-02-21T09:03:28;9.67;;;2.67;;
37047;SDS011;23227;48.780;9.210;2024-02-21T09:06:32;9.03;;;2.83;;
37047;SDS011;23227;48.780;9.210;2024-02-21T09:09:37;8.93;;;2.60;;
37047;SDS011;23227;48.780;9.210;2024-02-21T09:12:41;7.63;;;2.67;;
37047;SDS011;23227;48.780;9.210;2024-02-21T09:15:44;7.60;;;2.30;;
37047;SDS011;23227;48.780;9.210;2024-02-21T09:18:47;8.30;;;1.87;;
37047;SDS011;23227;48.780;9.210;2024-02-21T09:21:50;4.90;;;1.75;;
37047;SDS011;23227;48.780;9.210;2024-02-21T09:24:52;6.53;;;2.45;;
37047;SDS011;23227;48.780;9.210;2024-02-21T09:27:55;7.20;;;2.10;;
37047;SDS011;23227;48.780;9.210;2024-02-21T09:31:00;6.87;;;2.17;;
37047;SDS011;23227;48.780;9.210;2024-02-21T09:34:03;8.03;;;2.33;;
37047;SDS011;23227;48.780;9.210;2024-02-21T09:37:06;6.03;;;2.10;;
37047;SDS011;23227;48.780;9.210;2024-02-21T09:40:10;5.17;;;2.40;;
37047;SDS011;23227;48.780;9.210;2024-02-21T09:43:13;5.77;;;2.13;;
37047;SDS011;23227;48.780;9.210;2024-02-21T09:46:21;8.70;;;2.57;;
37047;SDS011;23227;48.780;9.210;2024-02-21T09:49:29;5.23;;;2.20;;
37047;SDS011;23227;48.780;9.210;2024-02-21T09:52:33;5.17;;;1.93;;
37047;SDS011;23227;48.780;9.210;2024-02-21T09:55:37;8.23;;;2.27;;
37047;SDS011;23227;48.780;9.210;2024-02-21T09:58:42;5.80;;;2.07;;
37047;SDS011;23227;48.780;9.210;2024-02-21T10:01:46;5.05;;;1.70;;
37047;SDS011;23227;48.780;9.210;2024-02-21T10:04:49;5.57;;;2.23;;
37047;SDS011;23227;48.780;9.210;2024-02-21T10:07:52;5.07;;;2.28;;
37047;SDS011;23227;48.780;9.210;2024-02-21T10:10:54;4.30;;;1.83;;
37047;SDS011;23227;48.780;9.210;2024-02-21T10:14:03;4.00;;;1.90;;
37047;SDS011;23227;48.780;9.210;2024-02-21T10:17:14;4.70;;;2.23;;
37047;SDS011;23227;48.780;9.210;2024-02-21T10:20:20;6.77;;;2.10;;
37047;SDS011;23227;48.780;9.210;2024-02-21T10:23:22;5.68;;;2.03;;
37047;SDS011;23227;48.780;9.210;2024-02-21T10:26:25;4.90;;;1.85;;
37047;SDS011;23227;48.780;9.210;2024-02-21T10:29:27;3.78;;;1.98;;
37047;SDS011;23227;48.780;9.210;2024-02-21T10:32:31;5.18;;;1.77;;
37047;SDS011;23227;48.780;9.210;2024-02-21T10:35:34;3.27;;;1.87;;
37047;SDS011;23227;48.780;9.210;2024-02-21T10:38:37;8.75;;;2.15;;
37047;SDS011;23227;48.780;9.210;2024-02-21T10:41:40;4.73;;;2.17;;
37047;SDS011;23227;48.780;9.210;2024-02-21T10:44:43;3.40;;;1.63;;
37047;SDS011;23227;48.780;9.210;2024-02-21T10:47:49;5.40;;;1.70;;
37047;SDS011;23227;48.780;9.210;2024-02-21T10:50:56;5.87;;;2.07;;
37047;SDS011;23227;48.780;9.210;2024-02-21T10:54:07;5.40;;;1.90;;
37047;SDS011;23227;48.780;9.210;2024-02-21T10:57:16;2.80;;;1.53;;
37047;SDS011;23227;48.780;9.210;2024-02-21T11:00:19;6.23;;;1.67;;
37047;SDS011;23227;48.780;9.210;2024-02-21T11:03:24;3.70;;;1.77;;
37047;SDS011;23227;48.780;9.210;2024-02-21T11:06:26;4.73;;;2.00;;
37047;SDS011;23227;48.780;9.210;2024-02-21T11:09:30;3.87;;;1.60;;
37047;SDS011;23227;48.780;9.210;2024-02-21T11:12:34;5.17;;;1.37;;
37047;SDS011;23227;48.780;9.210;2024-02-21T11:15:37;5.63;;;1.73;;
37047;SDS011;23227;48.780;9.210;2024-02-21T11:18:40;6.53;;;1.55;;
37047;SDS011;23227;48.780;9.210;2024-02-21T11:21:43;4.37;;;1.70;;
37047;SDS011;23227;48.780;9.210;2024-02-21T11:24:46;5.18;;;1.80;;
37047;SDS011;23227;48.780;9.210;2024-02-21T11:27:48;5.95;;;1.88;;
37047;SDS011;23227;48.780;9.210;2024-02-21T11:30:52;4.97;;;1.97;;
37047;SDS011;23227;48.780;9.210;2024-02-21T11:33:57;5.83;;;1.77;;
37047;SDS011;23227;48.780;9.210;2024-02-21T11:37:02;3.97;;;1.63;;
37047;SDS011;23227;48.780;9.210;2024-02-21T11:43:18;3.17;;;1.93;;
37047;SDS011;23227;48.780;9.210;2024-02-21T11:46:20;2.70;;;1.27;;
37047;SDS011;23227;48.780;9.210;2024-02-21T11:49:27;4.03;;;1.30;;
37047;SDS011;23227;48.780;9.210;2024-02-21T11:52:30;4.30;;;1.43;;
37047;SDS011;23227;48.780;9.210;2024-02-21T11:55:33;2.13;;;1.33;;
37047;SDS011;23227;48.780;9.210;2024-02-21T12:01:39;3.83;;;1.53;;
37047;SDS011;23227;48.780;9.210;2024-02-21T12:04:43;3.25;;;1.15;;
37047;SDS011;23227;48.780;9.210;2024-02-21T12:07:46;3.73;;;1.33;;
37047;SDS011;23227;48.780;9.210;2024-02-21T12:10:48;3.92;;;1.40;;
37047;SDS011;23227;48.780;9.210;2024-02-21T12:13:59;3.17;;;1.20;;
37047;SDS011;23227;48.780;9.210;2024-02-21T12:17:04;3.90;;;1.27;;
37047;SDS011;23227;48.780;9.210;2024-02-21T12:20:09;3.87;;;1.77;;
37047;SDS011;23227;48.780;9.210;2024-02-21T12:23:13;3.00;;;1.40;;
37047;SDS011;23227;48.780;9.210;2024-02-21T12:26:17;2.53;;;1.20;;
37047;SDS011;23227;48.780;9.210;2024-02-21T12:29:22;5.23;;;1.47;;
37047;SDS011;23227;48.780;9.210;2024-02-21T12:32:25;5.20;;;1.83;;
37047;SDS011;23227;48.780;9.210;2024-02-21T12:35:29;2.40;;;1.17;;
37047;SDS011;23227;48.780;9.210;2024-02-21T12:38:34;4.00;;;1.40;;
37047;SDS011;23227;48.780;9.210;2024-02-21T12:41:37;2.80;;;1.23;;
37047;SDS011;23227;48.780;9.210;2024-02-21T12:44:40;2.87;;;1.37;;
37047;SDS011;23227;48.780;9.210;2024-02-21T12:47:43;2.85;;;1.25;;
37047;SDS011;23227;48.780;9.210;2024-02-21T12:50:49;4.32;;;1.50;;
37047;SDS011;23227;48.780;9.210;2024-02-21T12:53:52;2.20;;;1.00;;
37047;SDS011;23227;48.780;9.210;2024-02-21T12:59:58;4.07;;;1.50;;
37047;SDS011;23227;48.780;9.210;2024-02-21T13:03:01;2.53;;;1.23;;
37047;SDS011;23227;48.780;9.210;2024-02-21T13:06:05;3.17;;;1.43;;
37047;SDS011;23227;48.780;9.210;2024-02-21T13:09:11;2.93;;;1.30;;
37047;SDS011;23227;48.780;9.210;2024-02-21T13:12:15;2.87;;;1.10;;
37047;SDS011;23227;48.780;9.210;2024-02-21T13:15:17;2.03;;;1.30;;
37047;SDS011;23227;48.780;9.210;2024-02-21T13:18:20;3.22;;;1.33;;
37047;SDS011;23227;48.780;9.210;2024-02-21T13:21:24;2.53;;;1.05;;
37047;SDS011;23227;48.780;9.210;2024-02-21T13:24:27;2.40;;;1.17;;
37047;SDS011;23227;48.780;9.210;2024-02-21T13:27:29;2.22;;;1.00;;
37047;SDS011;23227;48.780;9.210;2024-02-21T13:30:32;2.47;;;1.00;;
37047;SDS011;23227;48.780;9.210;2024-02-21T13:33:35;2.77;;;1.30;;
37047;SDS011;23227;48.780;9.210;2024-02-21T13:36:39;1.85;;;0.80;;
37047;SDS011;23227;48.780;9.210;2024-02-21T13:39:42;2.50;;;1.23;;
37047;SDS011;23227;48.780;9.210;2024-02-21T13:42:44;1.95;;;1.00;;
37047;SDS011;23227;48.780;9.210;2024-02-21T13:45:56;1.80;;;0.82;;
37047;SDS011;23227;48.780;9.210;2024-02-21T13:49:02;3.70;;;1.47;;
37047;SDS011;23227;48.780;9.210;2024-02-21T13:52:08;2.93;;;1.00;;
37047;SDS011;23227;48.780;9.210;2024-02-21T13:55:10;2.30;;;1.20;;
37047;SDS011;23227;48.780;9.210;2024-02-21T13:58:13;2.75;;;1.10;;
37047;SDS011;23227;48.780;9.210;2024-02-21T14:01:16;1.42;;;0.90;;
37047;SDS011;23227;48.780;9.210;2024-02-21T14:04:19;2.43;;;0.90;;
37047;SDS011;23227;48.780;9.210;2024-02-21T14:07:23;2.17;;;1.08;;
37047;SDS011;23227;48.780;9.210;2024-02-21T14:10:26;2.83;;;1.10;;
37047;SDS011;23227;48.780;9.210;2024-02-21T14:13:29;1.23;;;0.77;;
37047;SDS011;23227;48.780;9.210;2024-02-21T14:16:32;2.10;;;0.90;;
37047;SDS011;23227;48.780;9.210;2024-02-21T14:19:35;2.40;;;1.15;;
37047;SDS011;23227;48.780;9.210;2024-02-21T14:22:39;1.33;;;1.00;;
37047;SDS011;23227;48.780;9.210;2024-02-21T14:25:42;1.97;;;0.90;;
37047;SDS011;23227;48.780;9.210;2024-02-21T14:28:44;3.08;;;1.20;;
37047;SDS011;23227;48.780;9.210;2024-02-21T14:31:47;2.50;;;0.98;;
37047;SDS011;23227;48.780;9.210;2024-02-21T14:34:50;1.70;;;0.80;;
37047;SDS011;23227;48.780;9.210;2024-02-21T14:37:54;1.30;;;0.82;;
37047;SDS011;23227;48.780;9.210;2024-02-21T14:40:58;1.27;;;0.80;;
37047;SDS011;23227;48.780;9.210;2024-02-21T14:44:01;2.08;;;1.00;;
37047;SDS011;23227;48.780;9.210;2024-02-21T14:47:05;1.97;;;0.90;;
37047;SDS011;23227;48.780;9.210;2024-02-21T14:56:16;1.33;;;0.70;;
37047;SDS011;23227;48.780;9.210;2024-02-21T14:59:19;1.50;;;0.70;;
37047;SDS011;23227;48.780;9.210;2024-02-21T15:02:34;1.47;;;0.73;;
37047;SDS011;23227;48.780;9.210;2024-02-21T15:08:42;1.47;;;0.80;;
37047;SDS011;23227;48.780;9.210;2024-02-21T15:11:45;1.07;;;0.70;;
37047;SDS011;23227;48.780;9.210;2024-02-21T15:14:47;1.63;;;0.73;;
37047;SDS011;23227;48.780;9.210;2024-02-21T15:17:50;1.73;;;1.02;;
37047;SDS011;23227;48.780;9.210;2024-02-21T15:20:53;1.30;;;0.68;;
37047;SDS011;23227;48.780;9.210;2024-02-21T15:23:57;1.77;;;1.10;;
37047;SDS011;23227;48.780;9.210;2024-02-21T15:27:00;1.10;;;0.70;;
37047;SDS011;23227;48.780;9.210;2024-02-21T15:30:02;1.75;;;0.68;;
37047;SDS011;23227;48.780;9.210;2024-02-21T15:33:06;2.17;;;0.80;;
37047;SDS011;23227;48.780;9.210;2024-02-21T15:36:09;0.77;;;0.68;;
37047;SDS011;23227;48.780;9.210;2024-02-21T15:39:13;1.67;;;0.75;;
37047;SDS011;23227;48.780;9.210;2024-02-21T15:42:15;1.57;;;0.73;;
37047;SDS011;23227;48.780;9.210;2024-02-21T15:45:18;1.58;;;0.73;;
37047;SDS011;23227;48.780;9.210;2024-02-21T15:48:21;2.10;;;0.70;;
37047;SDS011;23227;48.780;9.210;2024-02-21T15:51:26;1.27;;;0.67;;
37047;SDS011;23227;48.780;9.210;2024-02-21T15:54:30;0.95;;;0.50;;
37047;SDS011;23227;48.780;9.210;2024-02-21T15:57:33;1.30;;;0.73;;
37047;SDS011;23227;48.780;9.210;2024-02-21T16:00:36;1.15;;;0.73;;
37047;SDS011;23227;48.780;9.210;2024-02-21T16:03:38;1.38;;;0.93;;
37047;SDS011;23227;48.780;9.210;2024-02-21T16:06:42;1.70;;;0.70;;
37047;SDS011;23227;48.780;9.210;2024-02-21T16:09:49;1.73;;;0.80;;
37047;SDS011;23227;48.780;9.210;2024-02-21T16:12:52;0.43;;;0.40;;
37047;SDS011;23227;48.780;9.210;2024-02-21T16:15:55;1.03;;;0.73;;
37047;SDS011;23227;48.780;9.210;2024-02-21T16:18:57;1.30;;;0.60;;
37047;SDS011;23227;48.780;9.210;2024-02-21T16:22:00;1.63;;;0.47;;
37047;SDS011;23227;48.780;9.210;2024-02-21T16:25:07;1.50;;;0.70;;
37047;SDS011;23227;48.780;9.210;2024-02-21T16:28:10;1.40;;;0.67;;
37047;SDS011;23227;48.780;9.210;2024-02-21T16:31:13;1.30;;;0.73;;
37047;SDS011;23227;48.780;9.210;2024-02-21T16:34:16;2.10;;;0.82;;
37047;SDS011;23227;48.780;9.210;2024-02-21T16:37:19;1.58;;;0.75;;
37047;SDS011;23227;48.780;9.210;2024-02-21T16:40:24;1.40;;;0.70;;
37047;SDS011;23227;48.780;9.210;2024-02-21T16:43:26;1.37;;;0.80;;
37047;SDS011;23227;48.780;9.210;2024-02-21T16:46:30;1.40;;;0.70;;
37047;SDS011;23227;48.780;9.210;2024-02-21T16:49:33;1.13;;;0.60;;
37047;SDS011;23227;48.780;9.210;2024-02-21T16:52:37;1.57;;;0.80;;
37047;SDS011;23227;48.780;9.210;2024-02-21T16:55:42;1.73;;;0.70;;
37047;SDS011;23227;48.780;9.210;2024-02-21T16:58:45;2.37;;;0.80;;
37047;SDS011;23227;48.780;9.210;2024-02-21T17:01:48;1.40;;;0.80;;
37047;SDS011;23227;48.780;9.210;2024-02-21T17:04:53;0.80;;;0.60;;
37047;SDS011;23227;48.780;9.210;2024-02-21T17:07:56;1.02;;;0.63;;
37047;SDS011;23227;48.780;9.210;2024-02-21T17:11:00;0.98;;;0.65;;
37047;SDS011;23227;48.780;9.210;2024-02-21T17:14:03;1.57;;;1.10;;
37047;SDS011;23227;48.780;9.210;2024-02-21T17:17:06;0.85;;;0.63;;
37047;SDS011;23227;48.780;9.210;2024-02-21T17:20:08;1.52;;;0.60;;
37047;SDS011;23227;48.780;9.210;2024-02-21T17:23:12;0.90;;;0.70;;
37047;SDS011;23227;48.780;9.210;2024-02-21T17:26:17;0.90;;;0.50;;
37047;SDS011;23227;48.780;9.210;2024-02-21T17:29:20;1.27;;;0.70;;
37047;SDS011;23227;48.780;9.210;2024-02-21T17:32:25;1.17;;;0.67;;
37047;SDS011;23227;48.780;9.210;2024-02-21T17:35:27;1.17;;;0.60;;
37047;SDS011;23227;48.780;9.210;2024-02-21T17:38:30;0.50;;;0.50;;
37047;SDS011;23227;48.780;9.210;2024-02-21T17:41:34;0.95;;;0.60;;
37047;SDS011;23227;48.780;9.210;2024-02-21T17:44:37;1.57;;;0.90;;
37047;SDS011;23227;48.780;9.210;2024-02-21T17:47:43;1.10;;;0.60;;
37047;SDS011;23227;48.780;9.210;2024-02-21T17:50:46;1.10;;;0.70;;
37047;SDS011;23227;48.780;9.210;2024-02-21T17:53:48;1.00;;;0.63;;
37047;SDS011;23227;48.780;9.210;2024-02-21T17:56:52;0.88;;;0.65;;
37047;SDS011;23227;48.780;9.210;2024-02-21T17:59:55;2.00;;;0.70;;
37047;SDS011;23227;48.780;9.210;2024-02-21T18:02:58;1.25;;;0.63;;
37047;SDS011;23227;48.780;9.210;2024-02-21T18:06:01;1.60;;;0.70;;
37047;SDS011;23227;48.780;9.210;2024-02-21T18:09:05;0.80;;;0.50;;
37047;SDS011;23227;48.780;9.210;2024-02-21T18:12:10;0.50;;;0.40;;
37047;SDS011;23227;48.780;9.210;2024-02-21T18:15:12;0.60;;;0.50;;
37047;SDS011;23227;48.780;9.210;2024-02-21T18:18:15;1.30;;;0.70;;
37047;SDS011;23227;48.780;9.210;2024-02-21T18:21:17;1.17;;;0.55;;
37047;SDS011;23227;48.780;9.210;2024-02-21T18:24:21;1.90;;;1.00;;
37047;SDS011;23227;48.780;9.210;2024-02-21T18:27:25;0.93;;;0.60;;
37047;SDS011;23227;48.780;9.210;2024-02-21T18:30:29;2.40;;;0.70;;
37047;SDS011;23227;48.780;9.210;2024-02-21T18:33:32;1.00;;;0.80;;
37047;SDS011;23227;48.780;9.210;2024-02-21T18:36:35;1.40;;;0.75;;
37047;SDS011;23227;48.780;9.210;2024-02-21T18:39:38;0.93;;;0.70;;
37047;SDS011;23227;48.780;9.210;2024-02-21T18:42:42;0.93;;;0.52;;
37047;SDS011;23227;48.780;9.210;2024-02-21T18:45:44;1.10;;;0.50;;
37047;SDS011;23227;48.780;9.210;2024-02-21T18:48:47;0.50;;;0.45;;
37047;SDS011;23227;48.780;9.210;2024-02-21T18:51:50;0.65;;;0.50;;
37047;SDS011;23227;48.780;9.210;2024-02-21T18:54:52;0.73;;;0.52;;
37047;SDS011;23227;48.780;9.210;2024-02-21T18:57:56;1.05;;;0.52;;